sensor_id;sensor_type;location;lat;lon;timestamp;pressure;altitude;pressure_sealevel;temperature;humidity
7264;BME280;3673;52.480;13.348;2023-02-20T00:01:56;101743.44;;;8.79;51.76
7264;BME280;3673;52.480;13.348;2023-02-20T00:04:23;101731.94;;;9.11;51.38
7264;BME280;3673;52.480;13.348;2023-02-20T00:06:51;101728.56;;;9.15;51.35
7264;BME280;3673;52.480;13.348;2023-02-20T00:09:18;101738.50;;;9.33;50.68
7264;BME280;3673;52.480;13.348;2023-02-20T00:11:45;101729.56;;;9.20;50.66
7264;BME280;3673;52.480;13.348;2023-02-20T00:14:12;101736.94;;;9.01;51.18
7264;BME280;3673;52.480;13.348;2023-02-20T00:16:39;101722.56;;;9.21;51.26
7264;BME280;3673;52.480;13.348;2023-02-20T00:19:06;101728.44;;;9.09;51.32
7264;BME280;3673;52.480;13.348;2023-02-20T00:21:33;101724.34;;;8.82;51.87
7264;BME280;3673;52.480;13.348;2023-02-20T00:24:02;101731.88;;;8.68;51.81
7264;BME280;3673;52.480;13.348;2023-02-20T00:26:29;101729.09;;;8.60;52.73
7264;BME280;3673;52.480;13.348;2023-02-20T00:28:56;101720.22;;;8.52;52.91
7264;BME280;3673;52.480;13.348;2023-02-20T00:31:23;101712.53;;;8.24;53.51
7264;BME280;3673;52.480;13.348;2023-02-20T00:33:50;101702.59;;;8.42;53.09
7264;BME280;3673;52.480;13.348;2023-02-20T00:36:18;101698.44;;;8.50;53.35
7264;BME280;3673;52.480;13.348;2023-02-20T00:38:46;101702.91;;;8.57;53.10
7264;BME280;3673;52.480;13.348;2023-02-20T00:41:14;101705.53;;;8.21;53.76
7264;BME280;3673;52.480;13.348;2023-02-20T00:43:42;101698.91;;;8.34;53.69
7264;BME280;3673;52.480;13.348;2023-02-20T00:46:11;101693.22;;;8.50;53.13
7264;BME280;3673;52.480;13.348;2023-02-20T00:48:38;101698.56;;;8.56;53.42
7264;BME280;3673;52.480;13.348;2023-02-20T00:51:05;101685.63;;;8.61;53.20
7264;BME280;3673;52.480;13.348;2023-02-20T00:53:32;101689.75;;;8.51;53.50
7264;BME280;3673;52.480;13.348;2023-02-20T00:55:59;101697.13;;;8.32;53.78
7264;BME280;3673;52.480;13.348;2023-02-20T00:58:27;101693.22;;;8.50;53.59
7264;BME280;3673;52.480;13.348;2023-02-20T01:00:54;101685.03;;;8.34;53.91
7264;BME280;3673;52.480;13.348;2023-02-20T01:03:21;101675.25;;;8.26;54.33
7264;BME280;3673;52.480;13.348;2023-02-20T01:05:48;101676.78;;;8.17;54.29
7264;BME280;3673;52.480;13.348;2023-02-20T01:08:15;101671.44;;;8.12;54.94
7264;BME280;3673;52.480;13.348;2023-02-20T01:10:42;101677.72;;;8.20;54.03
7264;BME280;3673;52.480;13.348;2023-02-20T01:13:08;101682.56;;;8.41;53.79
7264;BME280;3673;52.480;13.348;2023-02-20T01:15:37;101672.19;;;8.43;53.81
7264;BME280;3673;52.480;13.348;2023-02-20T01:18:04;101670.59;;;8.13;54.41
7264;BME280;3673;52.480;13.348;2023-02-20T01:20:32;101668.13;;;8.19;54.42
7264;BME280;3673;52.480;13.348;2023-02-20T01:22:59;101668.38;;;8.28;54.26
7264;BME280;3673;52.480;13.348;2023-02-20T01:25:26;101654.28;;;8.22;54.49
7264;BME280;3673;52.480;13.348;2023-02-20T01:27:53;101646.75;;;8.34;54.16
7264;BME280;3673;52.480;13.348;2023-02-20T01:30:20;101655.13;;;8.21;54.31
7264;BME280;3673;52.480;13.348;2023-02-20T01:32:48;101645.50;;;8.18;54.68
7264;BME280;3673;52.480;13.348;2023-02-20T01:35:15;101647.75;;;8.39;54.31
7264;BME280;3673;52.480;13.348;2023-02-20T01:37:42;101634.69;;;8.00;55.07
7264;BME280;3673;52.480;13.348;2023-02-20T01:40:14;101617.00;;;7.89;54.90
7264;BME280;3673;52.480;13.348;2023-02-20T01:42:42;101616.44;;;8.00;55.31
7264;BME280;3673;52.480;13.348;2023-02-20T01:45:18;101616.72;;;8.12;54.52
7264;BME280;3673;52.480;13.348;2023-02-20T01:47:45;101612.00;;;7.98;54.84
7264;BME280;3673;52.480;13.348;2023-02-20T01:50:19;101598.78;;;8.27;54.48
7264;BME280;3673;52.480;13.348;2023-02-20T01:52:50;101604.44;;;8.07;55.07
7264;BME280;3673;52.480;13.348;2023-02-20T01:55:22;101617.59;;;8.14;54.85
7264;BME280;3673;52.480;13.348;2023-02-20T01:57:55;101601.25;;;8.20;54.65
7264;BME280;3673;52.480;13.348;2023-02-20T02:00:23;101582.72;;;8.45;53.96
7264;BME280;3673;52.480;13.348;2023-02-20T02:02:53;101582.09;;;8.57;53.82
7264;BME280;3673;52.480;13.348;2023-02-20T02:05:24;101562.03;;;8.54;53.66
7264;BME280;3673;52.480;13.348;2023-02-20T02:07:51;101564.13;;;8.70;53.53
7264;BME280;3673;52.480;13.348;2023-02-20T02:10:24;101561.69;;;8.79;53.13
7264;BME280;3673;52.480;13.348;2023-02-20T02:12:54;101560.56;;;8.67;53.81
7264;BME280;3673;52.480;13.348;2023-02-20T02:15:22;101559.19;;;8.86;53.29
7264;BME280;3673;52.480;13.348;2023-02-20T02:18:08;101553.44;;;9.05;52.96
7264;BME280;3673;52.480;13.348;2023-02-20T02:24:58;101554.34;;;9.05;53.00
7264;BME280;3673;52.480;13.348;2023-02-20T02:28:00;101549.31;;;9.17;52.60
7264;BME280;3673;52.480;13.348;2023-02-20T02:31:05;101548.72;;;9.30;52.65
7264;BME280;3673;52.480;13.348;2023-02-20T02:37:02;101544.56;;;9.45;52.82
7264;BME280;3673;52.480;13.348;2023-02-20T02:39:37;101531.59;;;9.51;52.20
7264;BME280;3673;52.480;13.348;2023-02-20T02:42:14;101541.31;;;9.56;52.39
7264;BME280;3673;52.480;13.348;2023-02-20T02:44:51;101532.22;;;9.35;52.64
7264;BME280;3673;52.480;13.348;2023-02-20T02:47:24;101518.56;;;9.51;52.61
7264;BME280;3673;52.480;13.348;2023-02-20T02:49:57;101513.09;;;9.36;53.08
7264;BME280;3673;52.480;13.348;2023-02-20T02:52:28;101501.56;;;9.78;52.46
7264;BME280;3673;52.480;13.348;2023-02-20T02:55:17;101506.94;;;9.30;53.74
7264;BME280;3673;52.480;13.348;2023-02-20T02:57:44;101513.97;;;9.36;53.75
7264;BME280;3673;52.480;13.348;2023-02-20T03:00:16;101504.78;;;9.59;53.43
7264;BME280;3673;52.480;13.348;2023-02-20T03:02:52;101505.41;;;10.03;52.57
7264;BME280;3673;52.480;13.348;2023-02-20T03:05:25;101503.09;;;10.23;51.66
7264;BME280;3673;52.480;13.348;2023-02-20T03:08:07;101508.91;;;10.05;52.35
7264;BME280;3673;52.480;13.348;2023-02-20T03:10:39;101508.09;;;10.11;52.21
7264;BME280;3673;52.480;13.348;2023-02-20T03:13:09;101495.69;;;9.95;52.75
7264;BME280;3673;52.480;13.348;2023-02-20T03:15:40;101492.28;;;9.97;52.59
7264;BME280;3673;52.480;13.348;2023-02-20T03:18:16;101485.03;;;9.81;53.61
7264;BME280;3673;52.480;13.348;2023-02-20T03:20:49;101485.38;;;10.05;52.94
7264;BME280;3673;52.480;13.348;2023-02-20T03:23:22;101480.38;;;10.19;52.73
7264;BME280;3673;52.480;13.348;2023-02-20T03:25:52;101467.38;;;10.25;52.32
7264;BME280;3673;52.480;13.348;2023-02-20T03:28:23;101467.78;;;9.91;53.56
7264;BME280;3673;52.480;13.348;2023-02-20T03:30:55;101462.06;;;10.19;52.48
7264;BME280;3673;52.480;13.348;2023-02-20T03:33:29;101451.38;;;10.02;53.33
7264;BME280;3673;52.480;13.348;2023-02-20T03:36:21;101442.50;;;9.90;53.53
7264;BME280;3673;52.480;13.348;2023-02-20T03:39:13;101437.69;;;10.21;53.24
7264;BME280;3673;52.480;13.348;2023-02-20T03:41:59;101445.63;;;10.29;52.99
7264;BME280;3673;52.480;13.348;2023-02-20T03:44:44;101436.22;;;10.48;52.40
7264;BME280;3673;52.480;13.348;2023-02-20T03:47:14;101437.75;;;10.27;53.05
7264;BME280;3673;52.480;13.348;2023-02-20T03:49:44;101438.63;;;10.28;53.12
7264;BME280;3673;52.480;13.348;2023-02-20T03:52:14;101441.00;;;10.11;53.58
7264;BME280;3673;52.480;13.348;2023-02-20T03:54:42;101440.75;;;10.62;52.56
7264;BME280;3673;52.480;13.348;2023-02-20T03:57:12;101434.53;;;10.50;52.57
7264;BME280;3673;52.480;13.348;2023-02-20T03:59:43;101446.84;;;9.89;54.78
7264;BME280;3673;52.480;13.348;2023-02-20T04:02:19;101448.59;;;9.90;54.15
7264;BME280;3673;52.480;13.348;2023-02-20T04:04:51;101445.13;;;9.91;54.73
7264;BME280;3673;52.480;13.348;2023-02-20T04:07:23;101441.97;;;10.15;53.86
7264;BME280;3673;52.480;13.348;2023-02-20T04:09:54;101441.03;;;10.13;54.85
7264;BME280;3673;52.480;13.348;2023-02-20T04:12:26;101449.75;;;10.12;54.58
7264;BME280;3673;52.480;13.348;2023-02-20T04:14:56;101431.25;;;9.98;54.89
7264;BME280;3673;52.480;13.348;2023-02-20T04:17:26;101418.56;;;10.24;54.78
7264;BME280;3673;52.480;13.348;2023-02-20T04:19:55;101427.84;;;10.02;54.57
7264;BME280;3673;52.480;13.348;2023-02-20T04:22:26;101427.25;;;10.23;54.97
7264;BME280;3673;52.480;13.348;2023-02-20T04:24:59;101419.91;;;10.70;53.59
7264;BME280;3673;52.480;13.348;2023-02-20T04:27:27;101424.69;;;10.26;54.72
7264;BME280;3673;52.480;13.348;2023-02-20T04:29:54;101414.19;;;10.24;55.46
7264;BME280;3673;52.480;13.348;2023-02-20T04:32:21;101414.66;;;9.95;55.72
7264;BME280;3673;52.480;13.348;2023-02-20T04:34:48;101408.97;;;10.26;55.46
7264;BME280;3673;52.480;13.348;2023-02-20T04:37:17;101388.28;;;10.49;54.42
7264;BME280;3673;52.480;13.348;2023-02-20T04:39:45;101402.38;;;10.64;54.26
7264;BME280;3673;52.480;13.348;2023-02-20T04:42:13;101402.88;;;10.24;55.10
7264;BME280;3673;52.480;13.348;2023-02-20T04:44:40;101388.16;;;10.33;55.61
7264;BME280;3673;52.480;13.348;2023-02-20T04:47:13;101382.31;;;10.60;54.47
7264;BME280;3673;52.480;13.348;2023-02-20T04:49:40;101376.09;;;10.49;54.53
7264;BME280;3673;52.480;13.348;2023-02-20T04:52:07;101375.19;;;10.46;54.76
7264;BME280;3673;52.480;13.348;2023-02-20T04:54:34;101373.34;;;10.34;55.02
7264;BME280;3673;52.480;13.348;2023-02-20T04:57:01;101380.34;;;10.41;54.99
7264;BME280;3673;52.480;13.348;2023-02-20T04:59:30;101370.00;;;10.52;55.07
7264;BME280;3673;52.480;13.348;2023-02-20T05:01:56;101353.34;;;10.42;55.01
7264;BME280;3673;52.480;13.348;2023-02-20T05:04:25;101355.97;;;10.42;55.22
7264;BME280;3673;52.480;13.348;2023-02-20T05:06:54;101338.72;;;10.62;55.13
7264;BME280;3673;52.480;13.348;2023-02-20T05:09:22;101328.09;;;10.46;55.19
7264;BME280;3673;52.480;13.348;2023-02-20T05:11:49;101333.25;;;10.37;55.68
7264;BME280;3673;52.480;13.348;2023-02-20T05:14:17;101314.31;;;10.65;55.13
7264;BME280;3673;52.480;13.348;2023-02-20T05:16:45;101313.56;;;10.79;54.70
7264;BME280;3673;52.480;13.348;2023-02-20T05:19:13;101314.22;;;10.54;55.42
7264;BME280;3673;52.480;13.348;2023-02-20T05:21:41;101319.59;;;10.69;55.01
7264;BME280;3673;52.480;13.348;2023-02-20T05:24:26;101314.19;;;10.50;56.15
7264;BME280;3673;52.480;13.348;2023-02-20T05:26:54;101314.31;;;10.68;55.96
7264;BME280;3673;52.480;13.348;2023-02-20T05:29:22;101311.53;;;10.44;56.28
7264;BME280;3673;52.480;13.348;2023-02-20T05:31:50;101309.22;;;10.88;55.87
7264;BME280;3673;52.480;13.348;2023-02-20T05:34:17;101304.66;;;10.61;56.16
7264;BME280;3673;52.480;13.348;2023-02-20T05:36:45;101310.88;;;10.72;56.35
7264;BME280;3673;52.480;13.348;2023-02-20T05:39:12;101302.41;;;11.11;55.08
7264;BME280;3673;52.480;13.348;2023-02-20T05:41:39;101313.38;;;10.58;56.39
7264;BME280;3673;52.480;13.348;2023-02-20T05:44:06;101303.78;;;10.56;56.56
7264;BME280;3673;52.480;13.348;2023-02-20T05:46:38;101303.03;;;10.73;56.39
7264;BME280;3673;52.480;13.348;2023-02-20T05:49:07;101302.03;;;10.58;56.38
7264;BME280;3673;52.480;13.348;2023-02-20T05:51:34;101302.19;;;10.77;56.20
7264;BME280;3673;52.480;13.348;2023-02-20T05:54:03;101289.28;;;11.05;55.66
7264;BME280;3673;52.480;13.348;2023-02-20T05:56:30;101292.88;;;11.17;55.90
7264;BME280;3673;52.480;13.348;2023-02-20T05:58:57;101291.03;;;11.03;55.77
7264;BME280;3673;52.480;13.348;2023-02-20T06:01:30;101290.06;;;10.89;56.26
7264;BME280;3673;52.480;13.348;2023-02-20T06:03:57;101278.56;;;10.64;57.12
7264;BME280;3673;52.480;13.348;2023-02-20T06:06:31;101266.34;;;10.66;57.66
7264;BME280;3673;52.480;13.348;2023-02-20T06:08:58;101266.53;;;10.90;57.07
7264;BME280;3673;52.480;13.348;2023-02-20T06:11:25;101253.53;;;11.10;56.22
7264;BME280;3673;52.480;13.348;2023-02-20T06:13:52;101256.09;;;11.02;56.27
7264;BME280;3673;52.480;13.348;2023-02-20T06:16:22;101244.69;;;10.90;56.29
7264;BME280;3673;52.480;13.348;2023-02-20T06:18:49;101245.41;;;10.66;57.10
7264;BME280;3673;52.480;13.348;2023-02-20T06:21:16;101244.69;;;10.87;56.85
7264;BME280;3673;52.480;13.348;2023-02-20T06:23:46;101236.72;;;10.71;57.41
7264;BME280;3673;52.480;13.348;2023-02-20T06:26:14;101234.28;;;10.99;56.61
7264;BME280;3673;52.480;13.348;2023-02-20T06:28:41;101235.13;;;10.98;56.38
7264;BME280;3673;52.480;13.348;2023-02-20T06:31:10;101248.97;;;10.74;56.60
7264;BME280;3673;52.480;13.348;2023-02-20T06:33:37;101243.75;;;10.81;56.79
7264;BME280;3673;52.480;13.348;2023-02-20T06:36:05;101234.28;;;11.05;55.92
7264;BME280;3673;52.480;13.348;2023-02-20T06:38:32;101228.88;;;10.67;56.82
7264;BME280;3673;52.480;13.348;2023-02-20T06:41:03;101218.44;;;10.76;57.13
7264;BME280;3673;52.480;13.348;2023-02-20T06:43:30;101213.16;;;10.71;56.94
7264;BME280;3673;52.480;13.348;2023-02-20T06:45:57;101222.00;;;10.84;56.69
7264;BME280;3673;52.480;13.348;2023-02-20T06:48:23;101240.31;;;10.84;57.14
7264;BME280;3673;52.480;13.348;2023-02-20T06:50:50;101244.50;;;10.62;57.54
7264;BME280;3673;52.480;13.348;2023-02-20T06:53:20;101225.22;;;10.47;58.49
7264;BME280;3673;52.480;13.348;2023-02-20T06:55:47;101202.53;;;10.46;57.86
7264;BME280;3673;52.480;13.348;2023-02-20T06:58:15;101207.09;;;10.74;57.10
7264;BME280;3673;52.480;13.348;2023-02-20T07:00:42;101205.56;;;11.20;56.19
7264;BME280;3673;52.480;13.348;2023-02-20T07:03:08;101216.94;;;11.20;56.04
7264;BME280;3673;52.480;13.348;2023-02-20T07:05:35;101212.56;;;11.25;55.42
7264;BME280;3673;52.480;13.348;2023-02-20T07:08:03;101199.41;;;11.07;55.93
7264;BME280;3673;52.480;13.348;2023-02-20T07:10:29;101195.94;;;11.16;55.57
7264;BME280;3673;52.480;13.348;2023-02-20T07:12:56;101223.84;;;11.11;55.70
7264;BME280;3673;52.480;13.348;2023-02-20T07:15:24;101192.53;;;11.38;55.16
7264;BME280;3673;52.480;13.348;2023-02-20T07:17:51;101181.94;;;11.06;55.71
7264;BME280;3673;52.480;13.348;2023-02-20T07:20:18;101196.66;;;10.84;55.68
7264;BME280;3673;52.480;13.348;2023-02-20T07:22:49;101196.69;;;10.89;55.38
7264;BME280;3673;52.480;13.348;2023-02-20T07:25:16;101194.19;;;11.15;54.28
7264;BME280;3673;52.480;13.348;2023-02-20T07:27:42;101180.34;;;11.43;54.21
7264;BME280;3673;52.480;13.348;2023-02-20T07:30:11;101179.47;;;11.44;53.67
7264;BME280;3673;52.480;13.348;2023-02-20T07:32:39;101191.63;;;11.28;53.93
7264;BME280;3673;52.480;13.348;2023-02-20T07:35:07;101204.78;;;11.41;53.48
7264;BME280;3673;52.480;13.348;2023-02-20T07:37:33;101192.47;;;11.21;53.58
7264;BME280;3673;52.480;13.348;2023-02-20T07:40:00;101186.31;;;11.09;53.87
7264;BME280;3673;52.480;13.348;2023-02-20T07:42:27;101179.44;;;11.30;53.58
7264;BME280;3673;52.480;13.348;2023-02-20T07:44:54;101172.53;;;11.75;52.21
7264;BME280;3673;52.480;13.348;2023-02-20T07:47:21;101162.97;;;12.16;51.60
7264;BME280;3673;52.480;13.348;2023-02-20T07:49:49;101166.47;;;11.77;51.89
7264;BME280;3673;52.480;13.348;2023-02-20T07:52:15;101150.63;;;11.49;52.26
7264;BME280;3673;52.480;13.348;2023-02-20T07:54:42;101156.84;;;12.10;51.13
7264;BME280;3673;52.480;13.348;2023-02-20T07:57:09;101139.34;;;12.09;51.31
7264;BME280;3673;52.480;13.348;2023-02-20T07:59:36;101145.41;;;11.58;52.24
7264;BME280;3673;52.480;13.348;2023-02-20T08:02:03;101142.84;;;11.71;52.02
7264;BME280;3673;52.480;13.348;2023-02-20T08:04:29;101147.13;;;11.39;52.14
7264;BME280;3673;52.480;13.348;2023-02-20T08:06:58;101139.28;;;11.36;52.30
7264;BME280;3673;52.480;13.348;2023-02-20T08:09:25;101140.25;;;11.86;51.12
7264;BME280;3673;52.480;13.348;2023-02-20T08:11:51;101126.22;;;11.71;51.51
7264;BME280;3673;52.480;13.348;2023-02-20T08:14:18;101113.13;;;11.92;51.07
7264;BME280;3673;52.480;13.348;2023-02-20T08:16:45;101114.03;;;11.97;50.85
7264;BME280;3673;52.480;13.348;2023-02-20T08:19:12;101126.25;;;12.00;50.77
7264;BME280;3673;52.480;13.348;2023-02-20T08:21:38;101101.78;;;11.67;51.39
7264;BME280;3673;52.480;13.348;2023-02-20T08:24:07;101095.63;;;12.23;50.22
7264;BME280;3673;52.480;13.348;2023-02-20T08:26:33;101091.22;;;12.31;50.30
7264;BME280;3673;52.480;13.348;2023-02-20T08:29:00;101097.44;;;11.74;51.17
7264;BME280;3673;52.480;13.348;2023-02-20T08:31:27;101089.56;;;11.72;51.65
7264;BME280;3673;52.480;13.348;2023-02-20T08:33:54;101072.09;;;11.83;51.41
7264;BME280;3673;52.480;13.348;2023-02-20T08:36:21;101081.69;;;11.86;51.36
7264;BME280;3673;52.480;13.348;2023-02-20T08:38:47;101062.44;;;11.63;51.88
7264;BME280;3673;52.480;13.348;2023-02-20T08:41:16;101062.47;;;11.93;50.92
7264;BME280;3673;52.480;13.348;2023-02-20T08:43:43;101058.97;;;11.64;51.73
7264;BME280;3673;52.480;13.348;2023-02-20T08:46:10;101045.78;;;12.15;50.86
7264;BME280;3673;52.480;13.348;2023-02-20T08:48:38;101040.56;;;12.02;50.79
7264;BME280;3673;52.480;13.348;2023-02-20T08:51:05;101030.09;;;11.96;51.02
7264;BME280;3673;52.480;13.348;2023-02-20T08:53:33;101031.84;;;12.07;50.52
7264;BME280;3673;52.480;13.348;2023-02-20T08:56:00;101026.50;;;12.39;50.18
7264;BME280;3673;52.480;13.348;2023-02-20T08:58:28;101019.63;;;11.88;50.80
7264;BME280;3673;52.480;13.348;2023-02-20T09:00:55;101010.03;;;11.93;51.02
7264;BME280;3673;52.480;13.348;2023-02-20T09:03:22;101018.75;;;12.00;50.74
7264;BME280;3673;52.480;13.348;2023-02-20T09:05:49;100999.59;;;11.70;51.39
7264;BME280;3673;52.480;13.348;2023-02-20T09:08:16;101010.84;;;12.04;50.64
7264;BME280;3673;52.480;13.348;2023-02-20T09:10:43;100988.03;;;12.32;50.01
7264;BME280;3673;52.480;13.348;2023-02-20T09:13:10;100976.59;;;12.47;49.80
7264;BME280;3673;52.480;13.348;2023-02-20T09:15:38;100978.41;;;12.35;50.19
7264;BME280;3673;52.480;13.348;2023-02-20T09:18:06;100969.75;;;12.05;50.70
7264;BME280;3673;52.480;13.348;2023-02-20T09:20:34;100966.19;;;12.30;50.01
7264;BME280;3673;52.480;13.348;2023-02-20T09:23:02;100975.91;;;12.02;50.84
7264;BME280;3673;52.480;13.348;2023-02-20T09:25:29;100965.22;;;12.46;50.04
7264;BME280;3673;52.480;13.348;2023-02-20T09:27:56;100940.50;;;12.86;48.84
7264;BME280;3673;52.480;13.348;2023-02-20T09:30:23;100963.44;;;12.51;49.58
7264;BME280;3673;52.480;13.348;2023-02-20T09:32:52;100946.09;;;12.21;50.17
7264;BME280;3673;52.480;13.348;2023-02-20T09:35:23;100931.78;;;12.78;49.09
7264;BME280;3673;52.480;13.348;2023-02-20T09:37:50;100926.78;;;12.37;49.69
7264;BME280;3673;52.480;13.348;2023-02-20T09:40:20;100928.47;;;12.49;49.29
7264;BME280;3673;52.480;13.348;2023-02-20T09:43:09;100916.16;;;12.59;49.24
7264;BME280;3673;52.480;13.348;2023-02-20T09:45:43;100925.75;;;12.66;48.84
7264;BME280;3673;52.480;13.348;2023-02-20T09:48:30;100920.53;;;12.61;49.05
7264;BME280;3673;52.480;13.348;2023-02-20T09:51:03;100909.78;;;12.96;48.47
7264;BME280;3673;52.480;13.348;2023-02-20T09:53:36;100901.91;;;12.96;48.60
7264;BME280;3673;52.480;13.348;2023-02-20T09:56:12;100904.38;;;13.14;47.88
7264;BME280;3673;52.480;13.348;2023-02-20T09:58:44;100898.59;;;12.73;48.74
7264;BME280;3673;52.480;13.348;2023-02-20T10:01:16;100900.16;;;12.95;48.30
7264;BME280;3673;52.480;13.348;2023-02-20T10:03:54;100898.41;;;12.96;48.21
7264;BME280;3673;52.480;13.348;2023-02-20T10:06:25;100915.84;;;13.01;48.50
7264;BME280;3673;52.480;13.348;2023-02-20T10:08:54;100907.25;;;12.84;48.51
7264;BME280;3673;52.480;13.348;2023-02-20T10:11:37;100917.03;;;12.59;48.94
7264;BME280;3673;52.480;13.348;2023-02-20T10:14:57;100903.63;;;13.00;48.26
7264;BME280;3673;52.480;13.348;2023-02-20T10:17:37;100909.75;;;12.99;48.34
7264;BME280;3673;52.480;13.348;2023-02-20T10:20:12;100901.78;;;13.08;48.06
7264;BME280;3673;52.480;13.348;2023-02-20T10:22:51;100894.66;;;13.25;47.73
7264;BME280;3673;52.480;13.348;2023-02-20T10:25:23;100890.56;;;12.89;48.44
7264;BME280;3673;52.480;13.348;2023-02-20T10:27:53;100886.84;;;13.21;47.94
7264;BME280;3673;52.480;13.348;2023-02-20T10:30:28;100900.28;;;13.77;46.44
7264;BME280;3673;52.480;13.348;2023-02-20T10:33:03;100884.28;;;13.12;47.97
7264;BME280;3673;52.480;13.348;2023-02-20T10:35:43;100889.41;;;13.27;48.32
7264;BME280;3673;52.480;13.348;2023-02-20T10:38:15;100882.56;;;13.05;48.45
7264;BME280;3673;52.480;13.348;2023-02-20T10:40:50;100874.34;;;13.41;47.42
7264;BME280;3673;52.480;13.348;2023-02-20T10:43:24;100866.47;;;13.44;47.69
7264;BME280;3673;52.480;13.348;2023-02-20T10:46:05;100863.81;;;13.46;47.61
7264;BME280;3673;52.480;13.348;2023-02-20T10:48:35;100828.72;;;13.50;47.35
7264;BME280;3673;52.480;13.348;2023-02-20T10:51:10;100845.28;;;13.56;47.25
7264;BME280;3673;52.480;13.348;2023-02-20T10:53:45;100841.00;;;13.49;47.90
7264;BME280;3673;52.480;13.348;2023-02-20T10:56:19;100839.63;;;13.88;47.04
7264;BME280;3673;52.480;13.348;2023-02-20T10:59:03;100848.69;;;13.67;47.40
7264;BME280;3673;52.480;13.348;2023-02-20T11:01:34;100806.66;;;13.63;48.08
7264;BME280;3673;52.480;13.348;2023-02-20T11:04:08;100821.03;;;13.33;48.69
7264;BME280;3673;52.480;13.348;2023-02-20T11:06:43;100807.31;;;13.78;47.92
7264;BME280;3673;52.480;13.348;2023-02-20T11:09:11;100809.25;;;13.67;48.35
7264;BME280;3673;52.480;13.348;2023-02-20T11:11:41;100829.44;;;13.64;48.32
7264;BME280;3673;52.480;13.348;2023-02-20T11:14:13;100814.91;;;14.01;47.87
7264;BME280;3673;52.480;13.348;2023-02-20T11:16:46;100818.41;;;13.31;49.39
7264;BME280;3673;52.480;13.348;2023-02-20T11:19:20;100825.41;;;14.03;48.10
7264;BME280;3673;52.480;13.348;2023-02-20T11:21:50;100832.47;;;14.01;48.32
7264;BME280;3673;52.480;13.348;2023-02-20T11:24:29;100821.81;;;14.10;48.04
7264;BME280;3673;52.480;13.348;2023-02-20T11:27:03;100834.09;;;14.09;48.01
7264;BME280;3673;52.480;13.348;2023-02-20T11:29:40;100828.88;;;14.06;48.38
7264;BME280;3673;52.480;13.348;2023-02-20T11:32:36;100820.66;;;14.29;48.25
7264;BME280;3673;52.480;13.348;2023-02-20T11:35:24;100822.66;;;14.13;48.76
7264;BME280;3673;52.480;13.348;2023-02-20T11:41:30;100811.66;;;14.47;47.76
7264;BME280;3673;52.480;13.348;2023-02-20T11:44:22;100819.72;;;13.69;49.89
7264;BME280;3673;52.480;13.348;2023-02-20T11:47:24;100805.88;;;14.19;48.82
7264;BME280;3673;52.480;13.348;2023-02-20T11:50:12;100826.06;;;14.20;48.95
7264;BME280;3673;52.480;13.348;2023-02-20T11:52:55;100813.28;;;13.94;50.03
7264;BME280;3673;52.480;13.348;2023-02-20T11:55:25;100803.91;;;14.36;49.12
7264;BME280;3673;52.480;13.348;2023-02-20T11:57:54;100815.00;;;13.95;50.40
7264;BME280;3673;52.480;13.348;2023-02-20T12:00:23;100811.91;;;13.61;51.34
7264;BME280;3673;52.480;13.348;2023-02-20T12:02:53;100815.13;;;13.86;50.72
7264;BME280;3673;52.480;13.348;2023-02-20T12:05:21;100815.72;;;13.37;52.19
7264;BME280;3673;52.480;13.348;2023-02-20T12:08:01;100806.50;;;13.75;51.51
7264;BME280;3673;52.480;13.348;2023-02-20T12:10:40;100821.91;;;14.02;51.02
7264;BME280;3673;52.480;13.348;2023-02-20T12:13:13;100803.91;;;13.73;51.97
7264;BME280;3673;52.480;13.348;2023-02-20T12:15:41;100811.09;;;13.58;52.28
7264;BME280;3673;52.480;13.348;2023-02-20T12:18:40;100792.09;;;14.02;51.02
7264;BME280;3673;52.480;13.348;2023-02-20T12:21:26;100807.31;;;13.78;52.05
7264;BME280;3673;52.480;13.348;2023-02-20T12:24:15;100789.38;;;14.66;50.26
7264;BME280;3673;52.480;13.348;2023-02-20T12:26:52;100803.69;;;14.50;50.34
7264;BME280;3673;52.480;13.348;2023-02-20T12:29:40;100793.34;;;13.76;52.07
7264;BME280;3673;52.480;13.348;2023-02-20T12:32:33;100790.97;;;14.21;51.16
7264;BME280;3673;52.480;13.348;2023-02-20T12:35:22;100814.94;;;13.98;52.04
7264;BME280;3673;52.480;13.348;2023-02-20T12:38:14;100792.78;;;14.17;52.01
7264;BME280;3673;52.480;13.348;2023-02-20T12:41:07;100809.16;;;13.73;52.97
7264;BME280;3673;52.480;13.348;2023-02-20T12:43:45;100804.88;;;13.65;53.53
7264;BME280;3673;52.480;13.348;2023-02-20T12:46:20;100796.56;;;13.95;52.90
7264;BME280;3673;52.480;13.348;2023-02-20T12:49:28;100795.84;;;13.87;52.86
7264;BME280;3673;52.480;13.348;2023-02-20T12:52:16;100790.44;;;13.94;53.03
7264;BME280;3673;52.480;13.348;2023-02-20T12:54:53;100786.78;;;14.05;52.77
7264;BME280;3673;52.480;13.348;2023-02-20T12:57:32;100785.97;;;14.03;52.59
7264;BME280;3673;52.480;13.348;2023-02-20T13:00:21;100802.78;;;14.52;51.62
7264;BME280;3673;52.480;13.348;2023-02-20T13:02:57;100808.66;;;14.08;53.48
7264;BME280;3673;52.480;13.348;2023-02-20T13:05:26;100823.72;;;13.99;54.18
7264;BME280;3673;52.480;13.348;2023-02-20T13:07:56;100814.41;;;13.73;54.99
7264;BME280;3673;52.480;13.348;2023-02-20T13:10:29;100803.88;;;13.75;55.55
7264;BME280;3673;52.480;13.348;2023-02-20T13:12:56;100797.25;;;13.44;56.46
7264;BME280;3673;52.480;13.348;2023-02-20T13:15:35;100801.03;;;13.18;57.37
7264;BME280;3673;52.480;13.348;2023-02-20T13:18:10;100843.66;;;13.45;56.90
7264;BME280;3673;52.480;13.348;2023-02-20T13:20:46;100799.69;;;13.59;56.59
7264;BME280;3673;52.480;13.348;2023-02-20T13:23:30;100797.88;;;13.64;56.84
7264;BME280;3673;52.480;13.348;2023-02-20T13:25:58;100802.66;;;13.30;57.34
7264;BME280;3673;52.480;13.348;2023-02-20T13:28:36;100799.81;;;13.50;57.20
7264;BME280;3673;52.480;13.348;2023-02-20T13:31:20;100806.09;;;13.36;57.24
7264;BME280;3673;52.480;13.348;2023-02-20T13:33:50;100807.81;;;13.39;57.81
7264;BME280;3673;52.480;13.348;2023-02-20T13:36:40;100805.69;;;12.89;59.23
7264;BME280;3673;52.480;13.348;2023-02-20T13:39:44;100814.47;;;12.86;58.93